sensor_id;sensor_type;location;lat;lon;timestamp;P1;durP1;ratioP1;P2;durP2;ratioP2
20318;SDS011;10317;47.254;11.314;2023-04-25T00:01:11;2.10;;;2.00;;
20318;SDS011;10317;47.254;11.314;2023-04-25T00:03:38;1.88;;;1.83;;
20318;SDS011;10317;47.254;11.314;2023-04-25T00:06:04;2.13;;;1.92;;
20318;SDS011;10317;47.254;11.314;2023-04-25T00:08:30;3.80;;;2.03;;
20318;SDS011;10317;47.254;11.314;2023-04-25T00:10:56;1.80;;;1.77;;
20318;SDS011;10317;47.254;11.314;2023-04-25T00:13:22;2.00;;;1.90;;
20318;SDS011;10317;47.254;11.314;2023-04-25T00:15:48;2.03;;;1.92;;
20318;SDS011;10317;47.254;11.314;2023-04-25T00:18:14;2.97;;;2.40;;
20318;SDS011;10317;47.254;11.314;2023-04-25T00:20:40;2.20;;;2.10;;
20318;SDS011;10317;47.254;11.314;2023-04-25T00:23:09;2.03;;;1.92;;
20318;SDS011;10317;47.254;11.314;2023-04-25T00:25:35;6.50;;;2.17;;
20318;SDS011;10317;47.254;11.314;2023-04-25T00:28:01;2.13;;;2.03;;
20318;SDS011;10317;47.254;11.314;2023-04-25T00:30:26;2.80;;;2.60;;
20318;SDS011;10317;47.254;11.314;2023-04-25T00:32:52;2.65;;;2.45;;
20318;SDS011;10317;47.254;11.314;2023-04-25T00:35:18;2.30;;;2.20;;
20318;SDS011;10317;47.254;11.314;2023-04-25T00:37:43;3.95;;;2.42;;
20318;SDS011;10317;47.254;11.314;2023-04-25T00:40:10;3.20;;;2.90;;
20318;SDS011;10317;47.254;11.314;2023-04-25T00:42:37;2.20;;;2.10;;
20318;SDS011;10317;47.254;11.314;2023-04-25T00:45:04;2.17;;;2.08;;
20318;SDS011;10317;47.254;11.314;2023-04-25T00:47:32;3.58;;;2.50;;
20318;SDS011;10317;47.254;11.314;2023-04-25T00:49:58;2.83;;;2.63;;
20318;SDS011;10317;47.254;11.314;2023-04-25T00:52:23;2.40;;;2.30;;
20318;SDS011;10317;47.254;11.314;2023-04-25T00:54:49;3.10;;;3.00;;
20318;SDS011;10317;47.254;11.314;2023-04-25T00:57:15;2.92;;;2.67;;
20318;SDS011;10317;47.254;11.314;2023-04-25T00:59:42;3.33;;;2.85;;
20318;SDS011;10317;47.254;11.314;2023-04-25T01:02:11;3.75;;;2.10;;
20318;SDS011;10317;47.254;11.314;2023-04-25T01:04:38;2.80;;;2.47;;
20318;SDS011;10317;47.254;11.314;2023-04-25T01:07:04;3.53;;;3.28;;
20318;SDS011;10317;47.254;11.314;2023-04-25T01:09:30;6.10;;;3.00;;
20318;SDS011;10317;47.254;11.314;2023-04-25T01:11:57;3.08;;;2.88;;
20318;SDS011;10317;47.254;11.314;2023-04-25T01:14:23;3.15;;;2.95;;
20318;SDS011;10317;47.254;11.314;2023-04-25T01:16:48;3.30;;;3.00;;
20318;SDS011;10317;47.254;11.314;2023-04-25T01:19:16;2.92;;;2.72;;
20318;SDS011;10317;47.254;11.314;2023-04-25T01:21:43;4.55;;;3.10;;
20318;SDS011;10317;47.254;11.314;2023-04-25T01:24:08;2.92;;;2.80;;
20318;SDS011;10317;47.254;11.314;2023-04-25T01:26:34;3.15;;;2.78;;
20318;SDS011;10317;47.254;11.314;2023-04-25T01:29:01;2.72;;;2.53;;
20318;SDS011;10317;47.254;11.314;2023-04-25T01:31:27;3.72;;;3.40;;
20318;SDS011;10317;47.254;11.314;2023-04-25T01:33:53;2.75;;;2.58;;
20318;SDS011;10317;47.254;11.314;2023-04-25T01:36:18;3.35;;;2.97;;
20318;SDS011;10317;47.254;11.314;2023-04-25T01:38:45;2.55;;;2.45;;
20318;SDS011;10317;47.254;11.314;2023-04-25T01:41:12;3.50;;;3.20;;
20318;SDS011;10317;47.254;11.314;2023-04-25T01:43:39;2.92;;;2.72;;
20318;SDS011;10317;47.254;11.314;2023-04-25T01:46:04;2.67;;;2.47;;
20318;SDS011;10317;47.254;11.314;2023-04-25T01:48:30;4.43;;;2.90;;
20318;SDS011;10317;47.254;11.314;2023-04-25T01:50:56;2.70;;;2.50;;
20318;SDS011;10317;47.254;11.314;2023-04-25T01:53:22;2.72;;;2.42;;
20318;SDS011;10317;47.254;11.314;2023-04-25T01:55:48;2.70;;;2.50;;
20318;SDS011;10317;47.254;11.314;2023-04-25T01:58:14;2.78;;;2.67;;
20318;SDS011;10317;47.254;11.314;2023-04-25T02:00:39;4.70;;;3.33;;
20318;SDS011;10317;47.254;11.314;2023-04-25T02:03:06;2.78;;;2.65;;
20318;SDS011;10317;47.254;11.314;2023-04-25T02:05:38;2.92;;;2.78;;
20318;SDS011;10317;47.254;11.314;2023-04-25T02:08:05;2.75;;;2.65;;
20318;SDS011;10317;47.254;11.314;2023-04-25T02:10:32;3.28;;;2.75;;
20318;SDS011;10317;47.254;11.314;2023-04-25T02:12:59;3.20;;;2.90;;
20318;SDS011;10317;47.254;11.314;2023-04-25T02:15:24;5.00;;;3.03;;
20318;SDS011;10317;47.254;11.314;2023-04-25T02:17:50;3.05;;;2.88;;
20318;SDS011;10317;47.254;11.314;2023-04-25T02:20:18;2.60;;;2.50;;
20318;SDS011;10317;47.254;11.314;2023-04-25T02:22:46;3.08;;;2.63;;
20318;SDS011;10317;47.254;11.314;2023-04-25T02:25:12;3.15;;;2.95;;
20318;SDS011;10317;47.254;11.314;2023-04-25T02:27:37;3.13;;;2.90;;
20318;SDS011;10317;47.254;11.314;2023-04-25T02:30:04;3.20;;;2.92;;
20318;SDS011;10317;47.254;11.314;2023-04-25T02:32:31;2.88;;;2.67;;
20318;SDS011;10317;47.254;11.314;2023-04-25T02:34:59;2.95;;;2.75;;
20318;SDS011;10317;47.254;11.314;2023-04-25T02:37:29;3.00;;;2.80;;
20318;SDS011;10317;47.254;11.314;2023-04-25T02:39:55;3.85;;;3.15;;
20318;SDS011;10317;47.254;11.314;2023-04-25T02:42:20;2.92;;;2.72;;
20318;SDS011;10317;47.254;11.314;2023-04-25T02:44:46;3.42;;;3.13;;
20318;SDS011;10317;47.254;11.314;2023-04-25T02:47:12;2.90;;;2.70;;
20318;SDS011;10317;47.254;11.314;2023-04-25T02:49:37;3.08;;;2.90;;
20318;SDS011;10317;47.254;11.314;2023-04-25T02:52:03;3.53;;;3.20;;
20318;SDS011;10317;47.254;11.314;2023-04-25T02:54:29;5.25;;;3.00;;
20318;SDS011;10317;47.254;11.314;2023-04-25T02:56:55;3.28;;;3.08;;
20318;SDS011;10317;47.254;11.314;2023-04-25T02:59:21;3.53;;;2.63;;
20318;SDS011;10317;47.254;11.314;2023-04-25T03:01:46;4.30;;;3.38;;
20318;SDS011;10317;47.254;11.314;2023-04-25T03:04:12;6.13;;;3.70;;
20318;SDS011;10317;47.254;11.314;2023-04-25T03:06:38;4.03;;;3.67;;
20318;SDS011;10317;47.254;11.314;2023-04-25T03:09:03;3.63;;;3.33;;
20318;SDS011;10317;47.254;11.314;2023-04-25T03:11:29;3.10;;;2.95;;
20318;SDS011;10317;47.254;11.314;2023-04-25T03:13:55;4.53;;;4.13;;
20318;SDS011;10317;47.254;11.314;2023-04-25T03:16:21;3.33;;;3.13;;
20318;SDS011;10317;47.254;11.314;2023-04-25T03:18:47;5.13;;;3.10;;
20318;SDS011;10317;47.254;11.314;2023-04-25T03:21:14;3.38;;;3.17;;
20318;SDS011;10317;47.254;11.314;2023-04-25T03:23:40;3.10;;;2.88;;
20318;SDS011;10317;47.254;11.314;2023-04-25T03:26:05;2.90;;;2.50;;
20318;SDS011;10317;47.254;11.314;2023-04-25T03:28:31;3.28;;;3.03;;
20318;SDS011;10317;47.254;11.314;2023-04-25T03:30:57;3.20;;;3.00;;
20318;SDS011;10317;47.254;11.314;2023-04-25T03:33:22;3.30;;;3.10;;
20318;SDS011;10317;47.254;11.314;2023-04-25T03:35:48;4.75;;;3.13;;
20318;SDS011;10317;47.254;11.314;2023-04-25T03:38:15;3.35;;;3.05;;
20318;SDS011;10317;47.254;11.314;2023-04-25T03:40:41;3.33;;;3.03;;
20318;SDS011;10317;47.254;11.314;2023-04-25T03:43:07;3.28;;;3.00;;
20318;SDS011;10317;47.254;11.314;2023-04-25T03:45:33;3.17;;;2.97;;
20318;SDS011;10317;47.254;11.314;2023-04-25T03:47:58;3.55;;;3.25;;
20318;SDS011;10317;47.254;11.314;2023-04-25T03:50:24;3.05;;;2.92;;
20318;SDS011;10317;47.254;11.314;2023-04-25T03:52:50;4.72;;;2.70;;
20318;SDS011;10317;47.254;11.314;2023-04-25T03:55:15;4.30;;;3.35;;
20318;SDS011;10317;47.254;11.314;2023-04-25T03:57:41;2.85;;;2.65;;
20318;SDS011;10317;47.254;11.314;2023-04-25T04:00:07;3.00;;;2.80;;
20318;SDS011;10317;47.254;11.314;2023-04-25T04:02:33;3.15;;;2.95;;
20318;SDS011;10317;47.254;11.314;2023-04-25T04:05:00;3.15;;;2.70;;
20318;SDS011;10317;47.254;11.314;2023-04-25T04:07:25;2.75;;;2.65;;
20318;SDS011;10317;47.254;11.314;2023-04-25T04:09:51;3.10;;;2.78;;
20318;SDS011;10317;47.254;11.314;2023-04-25T04:12:17;3.90;;;2.97;;
20318;SDS011;10317;47.254;11.314;2023-04-25T04:14:43;3.28;;;2.97;;
20318;SDS011;10317;47.254;11.314;2023-04-25T04:17:08;3.20;;;3.00;;
20318;SDS011;10317;47.254;11.314;2023-04-25T04:19:34;3.08;;;2.78;;
20318;SDS011;10317;47.254;11.314;2023-04-25T04:22:01;3.30;;;3.10;;
20318;SDS011;10317;47.254;11.314;2023-04-25T04:24:26;3.40;;;3.20;;
20318;SDS011;10317;47.254;11.314;2023-04-25T04:26:52;3.92;;;3.28;;
20318;SDS011;10317;47.254;11.314;2023-04-25T04:29:17;2.95;;;2.75;;
20318;SDS011;10317;47.254;11.314;2023-04-25T04:31:49;3.88;;;3.55;;
20318;SDS011;10317;47.254;11.314;2023-04-25T04:34:16;2.53;;;2.42;;
20318;SDS011;10317;47.254;11.314;2023-04-25T04:36:43;3.05;;;2.85;;
20318;SDS011;10317;47.254;11.314;2023-04-25T04:39:11;4.07;;;3.00;;
20318;SDS011;10317;47.254;11.314;2023-04-25T04:41:37;2.90;;;2.70;;
20318;SDS011;10317;47.254;11.314;2023-04-25T04:44:03;3.42;;;3.22;;
20318;SDS011;10317;47.254;11.314;2023-04-25T04:46:29;2.80;;;2.70;;
20318;SDS011;10317;47.254;11.314;2023-04-25T04:48:56;2.65;;;2.55;;
20318;SDS011;10317;47.254;11.314;2023-04-25T04:51:22;2.90;;;2.70;;
20318;SDS011;10317;47.254;11.314;2023-04-25T04:53:47;3.50;;;3.20;;
20318;SDS011;10317;47.254;11.314;2023-04-25T04:56:13;2.85;;;2.65;;
20318;SDS011;10317;47.254;11.314;2023-04-25T04:58:39;3.75;;;2.75;;
20318;SDS011;10317;47.254;11.314;2023-04-25T05:01:04;2.47;;;2.38;;
20318;SDS011;10317;47.254;11.314;2023-04-25T05:03:30;4.35;;;3.10;;
20318;SDS011;10317;47.254;11.314;2023-04-25T05:05:56;3.03;;;2.90;;
20318;SDS011;10317;47.254;11.314;2023-04-25T05:08:22;3.35;;;3.10;;
20318;SDS011;10317;47.254;11.314;2023-04-25T05:10:47;3.20;;;3.00;;
20318;SDS011;10317;47.254;11.314;2023-04-25T05:13:13;3.15;;;2.75;;
20318;SDS011;10317;47.254;11.314;2023-04-25T05:15:39;2.60;;;2.50;;
20318;SDS011;10317;47.254;11.314;2023-04-25T05:18:04;3.80;;;2.92;;
20318;SDS011;10317;47.254;11.314;2023-04-25T05:20:30;3.38;;;3.08;;
20318;SDS011;10317;47.254;11.314;2023-04-25T05:22:55;2.90;;;2.78;;
20318;SDS011;10317;47.254;11.314;2023-04-25T05:25:21;3.17;;;2.97;;
20318;SDS011;10317;47.254;11.314;2023-04-25T05:27:47;3.60;;;3.05;;
20318;SDS011;10317;47.254;11.314;2023-04-25T05:30:12;3.30;;;3.10;;
20318;SDS011;10317;47.254;11.314;2023-04-25T05:32:38;3.30;;;3.10;;
20318;SDS011;10317;47.254;11.314;2023-04-25T05:35:04;3.28;;;2.95;;
20318;SDS011;10317;47.254;11.314;2023-04-25T05:37:31;3.35;;;3.15;;
20318;SDS011;10317;47.254;11.314;2023-04-25T05:39:57;3.83;;;3.10;;
20318;SDS011;10317;47.254;11.314;2023-04-25T05:42:23;2.80;;;2.70;;
20318;SDS011;10317;47.254;11.314;2023-04-25T05:44:49;3.40;;;2.92;;
20318;SDS011;10317;47.254;11.314;2023-04-25T05:47:14;4.38;;;3.35;;
20318;SDS011;10317;47.254;11.314;2023-04-25T05:49:40;3.55;;;3.25;;
20318;SDS011;10317;47.254;11.314;2023-04-25T05:52:05;2.78;;;2.65;;
20318;SDS011;10317;47.254;11.314;2023-04-25T05:54:31;4.00;;;2.92;;
20318;SDS011;10317;47.254;11.314;2023-04-25T05:56:57;2.92;;;2.72;;
20318;SDS011;10317;47.254;11.314;2023-04-25T05:59:22;3.25;;;3.00;;
20318;SDS011;10317;47.254;11.314;2023-04-25T06:01:48;3.53;;;3.25;;
20318;SDS011;10317;47.254;11.314;2023-04-25T06:04:14;3.95;;;2.97;;
20318;SDS011;10317;47.254;11.314;2023-04-25T06:06:39;3.55;;;3.35;;
20318;SDS011;10317;47.254;11.314;2023-04-25T06:09:05;3.10;;;2.85;;
20318;SDS011;10317;47.254;11.314;2023-04-25T06:11:31;2.80;;;2.60;;
20318;SDS011;10317;47.254;11.314;2023-04-25T06:13:56;3.35;;;3.05;;
20318;SDS011;10317;47.254;11.314;2023-04-25T06:16:22;3.20;;;2.95;;
20318;SDS011;10317;47.254;11.314;2023-04-25T06:18:50;2.95;;;2.70;;
20318;SDS011;10317;47.254;11.314;2023-04-25T06:21:16;2.90;;;2.75;;
20318;SDS011;10317;47.254;11.314;2023-04-25T06:23:42;2.92;;;2.83;;
20318;SDS011;10317;47.254;11.314;2023-04-25T06:26:07;2.83;;;2.63;;
20318;SDS011;10317;47.254;11.314;2023-04-25T06:28:33;3.72;;;2.78;;
20318;SDS011;10317;47.254;11.314;2023-04-25T06:30:58;2.97;;;2.75;;
20318;SDS011;10317;47.254;11.314;2023-04-25T06:33:24;2.78;;;2.58;;
20318;SDS011;10317;47.254;11.314;2023-04-25T06:35:50;3.47;;;3.17;;
20318;SDS011;10317;47.254;11.314;2023-04-25T06:38:15;2.72;;;2.53;;
20318;SDS011;10317;47.254;11.314;2023-04-25T06:40:41;2.90;;;2.70;;
20318;SDS011;10317;47.254;11.314;2023-04-25T06:43:07;4.50;;;2.40;;
20318;SDS011;10317;47.254;11.314;2023-04-25T06:45:32;2.33;;;2.22;;
20318;SDS011;10317;47.254;11.314;2023-04-25T06:47:58;4.65;;;2.45;;
20318;SDS011;10317;47.254;11.314;2023-04-25T06:50:24;4.80;;;2.42;;
20318;SDS011;10317;47.254;11.314;2023-04-25T06:52:49;2.95;;;2.80;;
20318;SDS011;10317;47.254;11.314;2023-04-25T06:55:15;2.85;;;2.38;;
20318;SDS011;10317;47.254;11.314;2023-04-25T06:57:41;2.92;;;2.65;;
20318;SDS011;10317;47.254;11.314;2023-04-25T07:00:07;2.92;;;2.70;;
20318;SDS011;10317;47.254;11.314;2023-04-25T07:02:35;2.65;;;2.55;;
20318;SDS011;10317;47.254;11.314;2023-04-25T07:05:02;5.10;;;3.20;;
20318;SDS011;10317;47.254;11.314;2023-04-25T07:07:29;3.05;;;2.90;;
20318;SDS011;10317;47.254;11.314;2023-04-25T07:09:55;3.05;;;2.78;;
20318;SDS011;10317;47.254;11.314;2023-04-25T07:12:21;3.63;;;2.38;;
20318;SDS011;10317;47.254;11.314;2023-04-25T07:14:47;2.50;;;2.40;;
20318;SDS011;10317;47.254;11.314;2023-04-25T07:17:12;2.15;;;2.03;;
20318;SDS011;10317;47.254;11.314;2023-04-25T07:19:38;2.20;;;2.10;;
20318;SDS011;10317;47.254;11.314;2023-04-25T07:22:05;2.58;;;2.38;;
20318;SDS011;10317;47.254;11.314;2023-04-25T07:24:31;2.00;;;1.90;;
20318;SDS011;10317;47.254;11.314;2023-04-25T07:26:57;2.00;;;1.90;;
20318;SDS011;10317;47.254;11.314;2023-04-25T07:29:23;2.72;;;2.53;;
20318;SDS011;10317;47.254;11.314;2023-04-25T07:31:48;1.90;;;1.80;;
20318;SDS011;10317;47.254;11.314;2023-04-25T07:34:14;3.60;;;1.73;;
20318;SDS011;10317;47.254;11.314;2023-04-25T07:36:40;2.15;;;2.00;;
20318;SDS011;10317;47.254;11.314;2023-04-25T07:39:06;2.25;;;2.03;;
20318;SDS011;10317;47.254;11.314;2023-04-25T07:41:34;2.10;;;2.00;;
20318;SDS011;10317;47.254;11.314;2023-04-25T07:44:00;2.60;;;2.40;;
20318;SDS011;10317;47.254;11.314;2023-04-25T07:46:25;2.40;;;2.22;;
20318;SDS011;10317;47.254;11.314;2023-04-25T07:48:51;2.22;;;2.13;;
20318;SDS011;10317;47.254;11.314;2023-04-25T07:51:17;2.67;;;2.17;;
20318;SDS011;10317;47.254;11.314;2023-04-25T07:53:44;3.92;;;2.17;;
20318;SDS011;10317;47.254;11.314;2023-04-25T07:56:11;2.65;;;2.50;;
20318;SDS011;10317;47.254;11.314;2023-04-25T07:58:36;3.22;;;2.40;;
20318;SDS011;10317;47.254;11.314;2023-04-25T08:01:02;3.25;;;2.28;;
20318;SDS011;10317;47.254;11.314;2023-04-25T08:03:28;2.67;;;2.22;;
20318;SDS011;10317;47.254;11.314;2023-04-25T08:05:54;2.60;;;2.40;;
20318;SDS011;10317;47.254;11.314;2023-04-25T08:08:20;2.33;;;2.22;;
20318;SDS011;10317;47.254;11.314;2023-04-25T08:10:46;4.40;;;2.45;;
20318;SDS011;10317;47.254;11.314;2023-04-25T08:13:13;2.67;;;2.50;;
20318;SDS011;10317;47.254;11.314;2023-04-25T08:15:39;6.13;;;3.05;;
20318;SDS011;10317;47.254;11.314;2023-04-25T08:18:05;5.28;;;2.53;;
20318;SDS011;10317;47.254;11.314;2023-04-25T08:20:30;2.08;;;1.98;;
20318;SDS011;10317;47.254;11.314;2023-04-25T08:22:56;2.40;;;2.30;;
20318;SDS011;10317;47.254;11.314;2023-04-25T08:25:22;2.42;;;2.30;;
20318;SDS011;10317;47.254;11.314;2023-04-25T08:27:47;2.65;;;2.45;;
20318;SDS011;10317;47.254;11.314;2023-04-25T08:30:13;2.58;;;2.47;;
20318;SDS011;10317;47.254;11.314;2023-04-25T08:32:39;2.92;;;2.72;;
20318;SDS011;10317;47.254;11.314;2023-04-25T08:35:05;2.05;;;1.95;;
20318;SDS011;10317;47.254;11.314;2023-04-25T08:37:31;2.13;;;2.03;;
20318;SDS011;10317;47.254;11.314;2023-04-25T08:39:57;2.60;;;2.47;;
20318;SDS011;10317;47.254;11.314;2023-04-25T08:42:24;2.28;;;2.13;;
20318;SDS011;10317;47.254;11.314;2023-04-25T08:44:52;2.22;;;2.13;;
20318;SDS011;10317;47.254;11.314;2023-04-25T08:47:21;2.17;;;2.05;;
20318;SDS011;10317;47.254;11.314;2023-04-25T08:49:47;6.43;;;2.55;;
20318;SDS011;10317;47.254;11.314;2023-04-25T08:52:14;2.63;;;2.42;;
20318;SDS011;10317;47.254;11.314;2023-04-25T08:54:45;4.05;;;2.40;;
20318;SDS011;10317;47.254;11.314;2023-04-25T08:57:13;2.00;;;1.90;;
20318;SDS011;10317;47.254;11.314;2023-04-25T08:59:40;1.70;;;1.70;;
20318;SDS011;10317;47.254;11.314;2023-04-25T09:02:10;2.50;;;2.30;;
20318;SDS011;10317;47.254;11.314;2023-04-25T09:04:39;2.05;;;1.85;;
20318;SDS011;10317;47.254;11.314;2023-04-25T09:07:06;2.00;;;1.90;;
20318;SDS011;10317;47.254;11.314;2023-04-25T09:09:32;1.85;;;1.75;;
20318;SDS011;10317;47.254;11.314;2023-04-25T09:11:57;4.00;;;1.90;;
20318;SDS011;10317;47.254;11.314;2023-04-25T09:14:24;2.30;;;2.20;;
20318;SDS011;10317;47.254;11.314;2023-04-25T09:19:32;1.98;;;1.88;;
20318;SDS011;10317;47.254;11.314;2023-04-25T09:22:01;3.42;;;2.42;;
20318;SDS011;10317;47.254;11.314;2023-04-25T09:24:32;3.25;;;2.33;;
20318;SDS011;10317;47.254;11.314;2023-04-25T09:26:59;2.17;;;1.90;;
20318;SDS011;10317;47.254;11.314;2023-04-25T09:29:31;2.38;;;2.22;;
20318;SDS011;10317;47.254;11.314;2023-04-25T09:32:15;1.80;;;1.70;;
20318;SDS011;10317;47.254;11.314;2023-04-25T09:34:49;2.95;;;1.70;;
20318;SDS011;10317;47.254;11.314;2023-04-25T09:37:20;2.03;;;1.90;;
20318;SDS011;10317;47.254;11.314;2023-04-25T09:39:48;2.83;;;2.20;;
20318;SDS011;10317;47.254;11.314;2023-04-25T09:42:15;2.28;;;2.15;;
20318;SDS011;10317;47.254;11.314;2023-04-25T09:44:45;1.77;;;1.63;;
20318;SDS011;10317;47.254;11.314;2023-04-25T09:47:15;1.90;;;1.73;;
20318;SDS011;10317;47.254;11.314;2023-04-25T09:49:42;1.48;;;1.48;;
20318;SDS011;10317;47.254;11.314;2023-04-25T09:52:18;1.55;;;1.50;;
20318;SDS011;10317;47.254;11.314;2023-04-25T09:54:46;1.90;;;1.75;;
20318;SDS011;10317;47.254;11.314;2023-04-25T09:57:16;1.70;;;1.60;;
20318;SDS011;10317;47.254;11.314;2023-04-25T09:59:47;1.80;;;1.73;;
20318;SDS011;10317;47.254;11.314;2023-04-25T10:02:24;1.80;;;1.70;;
20318;SDS011;10317;47.254;11.314;2023-04-25T10:04:51;2.38;;;1.63;;
20318;SDS011;10317;47.254;11.314;2023-04-25T10:07:20;1.52;;;1.42;;
20318;SDS011;10317;47.254;11.314;2023-04-25T10:09:50;1.65;;;1.55;;
20318;SDS011;10317;47.254;11.314;2023-04-25T10:12:28;1.88;;;1.77;;
20318;SDS011;10317;47.254;11.314;2023-04-25T10:14:56;1.45;;;1.45;;
20318;SDS011;10317;47.254;11.314;2023-04-25T10:17:23;3.53;;;1.70;;
20318;SDS011;10317;47.254;11.314;2023-04-25T10:19:49;3.65;;;2.13;;
20318;SDS011;10317;47.254;11.314;2023-04-25T10:25:02;1.48;;;1.48;;
20318;SDS011;10317;47.254;11.314;2023-04-25T10:27:29;2.13;;;1.60;;
20318;SDS011;10317;47.254;11.314;2023-04-25T10:32:41;1.60;;;1.50;;
20318;SDS011;10317;47.254;11.314;2023-04-25T10:35:16;2.72;;;1.50;;
20318;SDS011;10317;47.254;11.314;2023-04-25T10:38:10;1.70;;;1.60;;
20318;SDS011;10317;47.254;11.314;2023-04-25T10:40:39;1.52;;;1.40;;
20318;SDS011;10317;47.254;11.314;2023-04-25T10:46:22;2.80;;;2.60;;
20318;SDS011;10317;47.254;11.314;2023-04-25T10:48:51;1.88;;;1.83;;
20318;SDS011;10317;47.254;11.314;2023-04-25T10:51:33;1.88;;;1.58;;
20318;SDS011;10317;47.254;11.314;2023-04-25T10:56:26;2.65;;;2.25;;
20318;SDS011;10317;47.254;11.314;2023-04-25T10:59:12;2.30;;;2.20;;
20318;SDS011;10317;47.254;11.314;2023-04-25T11:01:40;3.03;;;2.78;;
20318;SDS011;10317;47.254;11.314;2023-04-25T11:04:32;2.75;;;2.30;;
20318;SDS011;10317;47.254;11.314;2023-04-25T11:09:38;2.08;;;1.98;;
20318;SDS011;10317;47.254;11.314;2023-04-25T11:12:07;2.17;;;2.00;;
20318;SDS011;10317;47.254;11.314;2023-04-25T11:14:33;3.53;;;3.15;;
20318;SDS011;10317;47.254;11.314;2023-04-25T11:16:59;2.15;;;2.05;;
20318;SDS011;10317;47.254;11.314;2023-04-25T11:19:27;2.42;;;2.25;;
20318;SDS011;10317;47.254;11.314;2023-04-25T11:21:57;2.25;;;2.05;;
20318;SDS011;10317;47.254;11.314;2023-04-25T11:24:32;2.33;;;2.03;;
20318;SDS011;10317;47.254;11.314;2023-04-25T11:27:02;2.10;;;1.90;;
20318;SDS011;10317;47.254;11.314;2023-04-25T11:29:31;2.75;;;2.30;;
20318;SDS011;10317;47.254;11.314;2023-04-25T11:31:57;1.95;;;1.85;;
20318;SDS011;10317;47.254;11.314;2023-04-25T11:34:24;1.90;;;1.80;;
20318;SDS011;10317;47.254;11.314;2023-04-25T11:36:50;2.17;;;1.92;;
20318;SDS011;10317;47.254;11.314;2023-04-25T11:39:18;1.70;;;1.60;;
20318;SDS011;10317;47.254;11.314;2023-04-25T11:41:44;1.90;;;1.80;;
20318;SDS011;10317;47.254;11.314;2023-04-25T11:44:10;1.75;;;1.73;;
20318;SDS011;10317;47.254;11.314;2023-04-25T11:46:35;1.73;;;1.20;;
20318;SDS011;10317;47.254;11.314;2023-04-25T11:49:01;1.73;;;1.33;;
20318;SDS011;10317;47.254;11.314;2023-04-25T11:51:28;1.30;;;1.13;;
20318;SDS011;10317;47.254;11.314;2023-04-25T11:53:53;0.88;;;0.88;;
20318;SDS011;10317;47.254;11.314;2023-04-25T11:56:20;0.95;;;0.95;;
20318;SDS011;10317;47.254;11.314;2023-04-25T11:58:56;1.60;;;0.98;;
20318;SDS011;10317;47.254;11.314;2023-04-25T12:01:36;1.13;;;0.80;;
20318;SDS011;10317;47.254;11.314;2023-04-25T12:04:13;0.70;;;0.70;;
20318;SDS011;10317;47.254;11.314;2023-04-25T12:06:50;1.05;;;1.05;;
20318;SDS011;10317;47.254;11.314;2023-04-25T12:09:21;1.05;;;0.93;;
20318;SDS011;10317;47.254;11.314;2023-04-25T12:11:57;2.67;;;0.93;;
20318;SDS011;10317;47.254;11.314;2023-04-25T12:14:27;1.45;;;0.90;;
20318;SDS011;10317;47.254;11.314;2023-04-25T12:16:55;0.95;;;0.80;;
20318;SDS011;10317;47.254;11.314;2023-04-25T12:19:24;0.70;;;0.70;;
20318;SDS011;10317;47.254;11.314;2023-04-25T12:21:51;0.90;;;0.90;;
20318;SDS011;10317;47.254;11.314;2023-04-25T12:24:18;0.90;;;0.90;;
20318;SDS011;10317;47.254;11.314;2023-04-25T12:26:53;1.33;;;1.17;;
20318;SDS011;10317;47.254;11.314;2023-04-25T12:29:24;0.93;;;0.93;;
20318;SDS011;10317;47.254;11.314;2023-04-25T12:31:51;0.90;;;0.90;;
20318;SDS011;10317;47.254;11.314;2023-04-25T12:34:18;0.80;;;0.80;;
20318;SDS011;10317;47.254;11.314;2023-04-25T12:36:44;1.27;;;0.93;;
20318;SDS011;10317;47.254;11.314;2023-04-25T12:39:14;1.85;;;0.85;;
20318;SDS011;10317;47.254;11.314;2023-04-25T12:41:44;1.15;;;1.00;;
20318;SDS011;10317;47.254;11.314;2023-04-25T12:44:11;9.15;;;2.40;;
20318;SDS011;10317;47.254;11.314;2023-04-25T12:46:37;13.65;;;2.75;;
20318;SDS011;10317;47.254;11.314;2023-04-25T12:49:03;0.95;;;0.90;;
20318;SDS011;10317;47.254;11.314;2023-04-25T12:51:31;0.70;;;0.57;;
20318;SDS011;10317;47.254;11.314;2023-04-25T12:53:58;0.77;;;0.77;;
20318;SDS011;10317;47.254;11.314;2023-04-25T12:56:25;0.70;;;0.70;;
20318;SDS011;10317;47.254;11.314;2023-04-25T12:58:51;0.80;;;0.80;;
20318;SDS011;10317;47.254;11.314;2023-04-25T13:01:17;0.60;;;0.60;;
20318;SDS011;10317;47.254;11.314;2023-04-25T13:03:42;0.68;;;0.68;;
20318;SDS011;10317;47.254;11.314;2023-04-25T13:06:09;0.80;;;0.80;;
20318;SDS011;10317;47.254;11.314;2023-04-25T13:08:35;0.60;;;0.60;;
20318;SDS011;10317;47.254;11.314;2023-04-25T13:11:01;0.75;;;0.63;;
20318;SDS011;10317;47.254;11.314;2023-04-25T13:13:28;0.88;;;0.70;;
20318;SDS011;10317;47.254;11.314;2023-04-25T13:15:54;1.13;;;0.60;;
20318;SDS011;10317;47.254;11.314;2023-04-25T13:18:20;1.15;;;0.80;;
20318;SDS011;10317;47.254;11.314;2023-04-25T13:20:46;0.68;;;0.68;;
20318;SDS011;10317;47.254;11.314;2023-04-25T13:23:11;0.85;;;0.85;;
20318;SDS011;10317;47.254;11.314;2023-04-25T13:25:37;0.80;;;0.80;;
20318;SDS011;10317;47.254;11.314;2023-04-25T13:28:03;0.70;;;0.70;;
20318;SDS011;10317;47.254;11.314;2023-04-25T13:30:29;2.10;;;0.80;;
20318;SDS011;10317;47.254;11.314;2023-04-25T13:32:55;0.75;;;0.70;;
20318;SDS011;10317;47.254;11.314;2023-04-25T13:35:22;0.70;;;0.70;;
20318;SDS011;10317;47.254;11.314;2023-04-25T13:37:48;0.70;;;0.70;;
20318;SDS011;10317;47.254;11.314;2023-04-25T13:40:13;0.50;;;0.50;;
20318;SDS011;10317;47.254;11.314;2023-04-25T13:42:39;0.88;;;0.88;;
20318;SDS011;10317;47.254;11.314;2023-04-25T13:45:06;2.28;;;0.70;;
20318;SDS011;10317;47.254;11.314;2023-04-25T13:47:32;0.70;;;0.70;;
20318;SDS011;10317;47.254;11.314;2023-04-25T13:49:59;1.23;;;0.98;;
20318;SDS011;10317;47.254;11.314;2023-04-25T13:52:25;1.55;;;0.50;;
20318;SDS011;10317;47.254;11.314;2023-04-25T13:54:52;0.77;;;0.60;;
20318;SDS011;10317;47.254;11.314;2023-04-25T13:57:17;0.60;;;0.60;;
20318;SDS011;10317;47.254;11.314;2023-04-25T13:59:43;0.50;;;0.50;;
20318;SDS011;10317;47.254;11.314;2023-04-25T14:02:09;0.70;;;0.70;;
20318;SDS011;10317;47.254;11.314;2023-04-25T14:04:34;0.52;;;0.52;;
20318;SDS011;10317;47.254;11.314;2023-04-25T14:07:00;0.52;;;0.52;;
20318;SDS011;10317;47.254;11.314;2023-04-25T14:09:27;1.15;;;0.70;;
20318;SDS011;10317;47.254;11.314;2023-04-25T14:11:53;0.75;;;0.75;;
20318;SDS011;10317;47.254;11.314;2023-04-25T14:14:20;0.70;;;0.70;;
20318;SDS011;10317;47.254;11.314;2023-04-25T14:16:47;4.28;;;0.73;;
20318;SDS011;10317;47.254;11.314;2023-04-25T14:19:13;0.60;;;0.60;;
20318;SDS011;10317;47.254;11.314;2023-04-25T14:21:40;0.60;;;0.60;;
20318;SDS011;10317;47.254;11.314;2023-04-25T14:24:06;0.70;;;0.70;;
20318;SDS011;10317;47.254;11.314;2023-04-25T14:26:33;1.90;;;0.75;;
20318;SDS011;10317;47.254;11.314;2023-04-25T14:28:59;0.70;;;0.70;;
20318;SDS011;10317;47.254;11.314;2023-04-25T14:31:25;0.60;;;0.60;;
20318;SDS011;10317;47.254;11.314;2023-04-25T14:33:51;1.08;;;0.70;;
20318;SDS011;10317;47.254;11.314;2023-04-25T14:36:16;0.95;;;0.50;;
20318;SDS011;10317;47.254;11.314;2023-04-25T14:38:42;0.70;;;0.70;;
20318;SDS011;10317;47.254;11.314;2023-04-25T14:41:08;3.67;;;0.60;;
20318;SDS011;10317;47.254;11.314;2023-04-25T14:43:34;0.60;;;0.60;;
20318;SDS011;10317;47.254;11.314;2023-04-25T14:46:01;1.40;;;0.60;;
20318;SDS011;10317;47.254;11.314;2023-04-25T14:48:27;2.60;;;0.60;;